createdAt,value
2018-04-17T00:00:17.755Z,30.6
2018-04-17T00:01:07.008Z,30.6
2018-04-17T00:01:57.915Z,30.6
2018-04-17T00:02:47.433Z,30.6
2018-04-17T00:03:37.037Z,30.6
2018-04-17T00:04:27.822Z,30.6
2018-04-17T00:05:17.874Z,30.6
2018-04-17T00:06:07.453Z,30.6
2018-04-17T00:06:57.267Z,30.6
2018-04-17T00:07:47.017Z,30.6
2018-04-17T00:08:37.071Z,30.5
2018-04-17T00:09:27.743Z,30.5
2018-04-17T00:10:18.032Z,30.5
2018-04-17T00:11:07.664Z,30.5
2018-04-17T00:11:58.157Z,30.5
2018-04-17T00:12:48.216Z,30.5
2018-04-17T00:13:38.313Z,30.4
2018-04-17T00:14:28.374Z,30.5
2018-04-17T00:15:17.876Z,30.5
2018-04-17T00:16:08.936Z,30.4
2018-04-17T00:16:59.063Z,30.4
2018-04-17T00:17:49.078Z,30.4
2018-04-17T00:18:39.157Z,30.4
2018-04-17T00:19:28.742Z,30.4
2018-04-17T00:20:19.018Z,30.4
2018-04-17T00:21:09.383Z,30.4
2018-04-17T00:21:59.181Z,30.4
2018-04-17T00:22:48.751Z,30.4
2018-04-17T00:23:39.250Z,30.4
2018-04-17T00:24:29.315Z,30.4
2018-04-17T00:25:19.121Z,30.4
2018-04-17T00:26:09.745Z,30.4
2018-04-17T00:26:59.287Z,30.4
2018-04-17T00:27:49.007Z,30.4
2018-04-17T00:28:39.353Z,30.4
2018-04-17T00:29:29.464Z,30.4
2018-04-17T00:30:19.527Z,30.4
2018-04-17T00:31:09.226Z,30.4
2018-04-17T00:31:59.642Z,30.4
2018-04-17T00:32:49.948Z,30.3
2018-04-17T00:33:40.129Z,30.3
2018-04-17T00:34:30.101Z,30.4
2018-04-17T00:35:20.448Z,30.3
2018-04-17T00:36:09.971Z,30.3
2018-04-17T00:37:00.279Z,30.3
2018-04-17T00:37:50.370Z,30.3
2018-04-17T00:38:40.407Z,30.3
2018-04-17T00:39:30.177Z,30.3
2018-04-17T00:40:20.548Z,30.3
2018-04-17T00:41:10.611Z,30.3
2018-04-17T00:42:00.946Z,30.3
2018-04-17T00:42:50.138Z,30.3
2018-04-17T00:43:41.037Z,30.3
2018-04-17T00:44:31.123Z,30.3
2018-04-17T00:45:20.887Z,30.3
2018-04-17T00:46:10.992Z,30.3
2018-04-17T00:47:01.014Z,30.3
2018-04-17T00:47:51.098Z,30.3
2018-04-17T00:48:40.867Z,30.3
2018-04-17T00:49:31.511Z,30.3
2018-04-17T00:50:20.411Z,30.3
2018-04-17T00:51:11.065Z,30.3
2018-04-17T00:52:01.423Z,30.3
2018-04-17T00:52:51.248Z,30.3
2018-04-17T00:53:41.837Z,30.3
2018-04-17T00:54:31.025Z,30.2
2018-04-17T00:55:21.684Z,30.3
2018-04-17T00:56:12.000Z,30.3
2018-04-17T00:57:01.510Z,30.2
2018-04-17T00:57:51.290Z,30.2
2018-04-17T00:58:41.644Z,30.2
2018-04-17T00:59:31.977Z,30.2
2018-04-17T01:00:22.338Z,30.2
2018-04-17T01:01:12.375Z,30.2
2018-04-17T01:02:01.299Z,30.2
2018-04-17T01:02:52.494Z,30.2
2018-04-17T01:03:42.284Z,30.2
2018-04-17T01:04:31.770Z,30.2
2018-04-17T01:05:22.716Z,30.1
2018-04-17T01:06:12.749Z,30.2
2018-04-17T01:07:02.223Z,30.2
2018-04-17T01:07:52.307Z,30.2
2018-04-17T01:08:42.409Z,30.2
2018-04-17T01:09:32.448Z,30.2
2018-04-17T01:10:22.212Z,30.1
2018-04-17T01:11:13.146Z,30.1
2018-04-17T01:12:03.199Z,30.1
2018-04-17T01:12:53.229Z,30.1
2018-04-17T01:13:42.759Z,30.1
2018-04-17T01:14:33.443Z,30.1
2018-04-17T01:15:23.157Z,30.1
2018-04-17T01:16:12.989Z,30.1
2018-04-17T01:17:03.600Z,30.1
2018-04-17T01:17:52.784Z,30.1
2018-04-17T01:18:43.679Z,30.1
2018-04-17T01:19:33.478Z,30.1
2018-04-17T01:20:22.986Z,30.1
2018-04-17T01:21:13.353Z,30.1
2018-04-17T01:22:03.383Z,30.1
2018-04-17T01:22:53.729Z,30.1
2018-04-17T01:23:43.810Z,30.1
2018-04-17T01:24:34.169Z,30.1
2018-04-17T01:25:24.223Z,30.1
2018-04-17T01:26:14.036Z,30.1
2018-04-17T01:27:04.333Z,30.1
2018-04-17T01:27:54.386Z,30.1
2018-04-17T01:28:44.228Z,30.1
2018-04-17T01:29:34.241Z,30.1
2018-04-17T01:30:24.294Z,30.1
2018-04-17T01:31:13.506Z,30.1
2018-04-17T01:32:04.696Z,30.1
2018-04-17T01:32:54.477Z,30
2018-04-17T01:33:44.848Z,30.1
2018-04-17T01:34:34.859Z,30
2018-04-17T01:35:24.393Z,30
2018-04-17T01:36:14.730Z,30
2018-04-17T01:37:04.500Z,30.1
2018-04-17T01:37:54.042Z,30.1
2018-04-17T01:38:44.660Z,30
2018-04-17T01:39:35.003Z,30
2018-04-17T01:40:25.040Z,30
2018-04-17T01:41:15.091Z,30
2018-04-17T01:42:04.609Z,30
2018-04-17T01:42:55.541Z,30
2018-04-17T01:43:45.418Z,30
2018-04-17T01:44:35.617Z,30
2018-04-17T01:45:25.431Z,30
2018-04-17T01:46:14.907Z,30
2018-04-17T01:47:04.979Z,30
2018-04-17T01:47:55.628Z,30
2018-04-17T01:48:45.689Z,30
2018-04-17T01:49:35.464Z,29.9
2018-04-17T01:50:25.534Z,30
2018-04-17T01:51:15.566Z,29.9
2018-04-17T01:52:06.197Z,29.9
2018-04-17T01:52:55.997Z,30
2018-04-17T01:53:46.091Z,30
2018-04-17T01:54:36.119Z,30
2018-04-17T01:55:26.440Z,29.9
2018-04-17T01:56:17.085Z,29.9
2018-04-17T01:57:06.294Z,29.9
2018-04-17T01:57:56.378Z,29.9
2018-04-17T01:58:45.583Z,29.9
2018-04-17T01:59:35.643Z,29.9
2018-04-17T02:00:26.574Z,29.9
2018-04-17T02:01:16.613Z,30
2018-04-17T02:02:06.666Z,30.2
2018-04-17T02:02:57.015Z,30.4
2018-04-17T02:03:47.113Z,30.6
2018-04-17T02:04:36.899Z,30.9
2018-04-17T02:05:27.211Z,31.2
2018-04-17T02:06:16.452Z,31.4
2018-04-17T02:07:06.493Z,31.8
2018-04-17T02:07:56.843Z,32.1
2018-04-17T02:08:46.301Z,32.4
2018-04-17T02:09:36.959Z,32.7
2018-04-17T02:10:26.764Z,33
2018-04-17T02:11:17.623Z,33.3
2018-04-17T02:12:07.759Z,33.6
2018-04-17T02:12:57.805Z,33.9
2018-04-17T02:13:47.833Z,34.3
2018-04-17T02:14:37.368Z,34.5
2018-04-17T02:15:27.698Z,34.8
2018-04-17T02:16:17.742Z,35.1
2018-04-17T02:17:07.823Z,35.4
2018-04-17T02:17:58.165Z,35.7
2018-04-17T02:18:47.995Z,35.9
2018-04-17T02:19:38.001Z,36.3
2018-04-17T02:20:27.768Z,36.6
2018-04-17T02:21:18.125Z,36.8
2018-04-17T02:22:08.000Z,37.1
2018-04-17T02:22:58.250Z,37.3
2018-04-17T02:23:48.050Z,37.6
2018-04-17T02:24:38.634Z,37.9
2018-04-17T02:25:28.436Z,38.1
2018-04-17T02:26:18.500Z,38.4
2018-04-17T02:27:08.001Z,38.7
2018-04-17T02:27:58.904Z,38.9
2018-04-17T02:28:48.692Z,39.1
2018-04-17T02:29:38.732Z,39.3
2018-04-17T02:30:28.850Z,39.4
2018-04-17T02:31:18.620Z,39.6
2018-04-17T02:32:08.691Z,39.7
2018-04-17T02:32:58.735Z,39.9
2018-04-17T02:33:48.897Z,40
2018-04-17T02:34:39.146Z,40.1
2018-04-17T02:35:29.492Z,40.3
2018-04-17T02:36:19.560Z,40.4
2018-04-17T02:37:09.072Z,40.5
2018-04-17T02:37:59.394Z,40.6
2018-04-17T02:38:49.719Z,40.8
2018-04-17T02:39:39.285Z,40.9
2018-04-17T02:40:29.316Z,41
2018-04-17T02:41:19.650Z,41.1
2018-04-17T02:42:09.423Z,41.2
2018-04-17T02:43:00.075Z,41.4
2018-04-17T02:43:50.109Z,41.4
2018-04-17T02:44:39.723Z,41.6
2018-04-17T02:45:29.709Z,41.7
2018-04-17T02:46:20.346Z,41.8
2018-04-17T02:47:10.075Z,41.9
2018-04-17T02:47:59.366Z,42
2018-04-17T02:48:49.644Z,42.1
2018-04-17T02:49:40.257Z,42.3
2018-04-17T02:50:30.341Z,42.3
2018-04-17T02:51:20.690Z,42.4
2018-04-17T02:52:10.446Z,42.6
2018-04-17T02:53:00.203Z,42.8
2018-04-17T02:53:50.577Z,42.9
2018-04-17T02:54:40.932Z,43
2018-04-17T02:55:30.977Z,43.1
2018-04-17T02:56:19.918Z,43.3
2018-04-17T02:57:11.109Z,43.4
2018-04-17T02:58:00.639Z,43.6
2018-04-17T02:58:50.385Z,43.7
2018-04-17T02:59:40.230Z,43.8
2018-04-17T03:00:31.338Z,43.9
2018-04-17T03:01:21.145Z,44
2018-04-17T03:02:10.623Z,44.1
2018-04-17T03:03:00.804Z,44.3
2018-04-17T03:03:50.781Z,44.4
2018-04-17T03:04:41.186Z,44.5
2018-04-17T03:05:31.473Z,44.6
2018-04-17T03:06:21.228Z,44.8
2018-04-17T03:07:11.863Z,44.9
2018-04-17T03:08:01.393Z,45
2018-04-17T03:08:51.431Z,45.1
2018-04-17T03:09:41.505Z,45.3
2018-04-17T03:10:32.119Z,45.4
2018-04-17T03:11:21.921Z,45.5
2018-04-17T03:12:11.408Z,45.6
2018-04-17T03:13:02.013Z,45.7
2018-04-17T03:13:52.063Z,45.9
2018-04-17T03:14:42.201Z,46
2018-04-17T03:15:31.923Z,46.1
2018-04-17T03:16:22.265Z,46.3
2018-04-17T03:17:12.607Z,46.4
2018-04-17T03:18:02.671Z,46.4
2018-04-17T03:18:52.428Z,46.6
2018-04-17T03:19:42.550Z,46.8
2018-04-17T03:20:32.581Z,46.8
2018-04-17T03:21:22.909Z,46.8
2018-04-17T03:22:12.687Z,46.9
2018-04-17T03:23:03.029Z,46.9
2018-04-17T03:23:52.910Z,46.9
2018-04-17T03:24:43.209Z,46.9
2018-04-17T03:25:33.113Z,46.9
2018-04-17T03:26:22.714Z,47
2018-04-17T03:27:12.880Z,47
2018-04-17T03:28:02.894Z,47.1
2018-04-17T03:28:52.932Z,47.1
2018-04-17T03:29:42.723Z,47.1
2018-04-17T03:30:33.034Z,47.1
2018-04-17T03:31:23.683Z,47.1
2018-04-17T03:32:12.977Z,47.1
2018-04-17T03:33:03.299Z,47.1
2018-04-17T03:33:52.828Z,47.2
2018-04-17T03:34:43.381Z,47.2
2018-04-17T03:35:33.981Z,47.2
2018-04-17T03:36:24.049Z,47.2
2018-04-17T03:37:13.861Z,47.2
2018-04-17T03:38:04.158Z,47.3
2018-04-17T03:38:53.690Z,47.3
2018-04-17T03:39:44.028Z,47.3
2018-04-17T03:40:34.090Z,47.3
2018-04-17T03:41:32.583Z,47.3
2018-04-17T03:42:22.438Z,47.3
2018-04-17T03:43:12.426Z,47.3
2018-04-17T03:44:02.541Z,47.3
2018-04-17T03:44:52.939Z,47.3
2018-04-17T03:45:57.824Z,47.3
2018-04-17T03:46:32.760Z,47.3
2018-04-17T03:47:22.786Z,47.3
2018-04-17T03:48:13.047Z,47.3
2018-04-17T03:49:02.560Z,47.3
2018-04-17T03:49:53.285Z,47.3
2018-04-17T03:50:42.796Z,47.3
2018-04-17T03:51:32.826Z,47.3
2018-04-17T03:52:23.373Z,47.3
2018-04-17T03:53:13.264Z,47.4
2018-04-17T03:54:02.977Z,47.4
2018-04-17T03:54:53.087Z,47.3
2018-04-17T03:55:42.576Z,47.3
2018-04-17T03:56:33.732Z,47.3
2018-04-17T03:57:23.804Z,47.3
2018-04-17T03:58:13.143Z,47.3
2018-04-17T03:59:17.823Z,47.3
2018-04-17T03:59:53.556Z,47.3
2018-04-17T04:00:43.556Z,47.3
2018-04-17T04:01:33.685Z,47.3
2018-04-17T04:02:23.139Z,47.3
2018-04-17T04:03:13.751Z,47.3
2018-04-17T04:04:03.010Z,47.3
2018-04-17T04:04:54.142Z,47.3
2018-04-17T04:05:43.981Z,47.3
2018-04-17T04:06:34.321Z,47.3
2018-04-17T04:07:23.569Z,47.3
2018-04-17T04:08:14.652Z,47.3
2018-04-17T04:09:03.905Z,47.3
2018-04-17T04:09:53.994Z,47.2
2018-04-17T04:10:44.317Z,47.2
2018-04-17T04:11:34.395Z,47.3
2018-04-17T04:13:14.432Z,47.2
2018-04-17T04:14:19.465Z,47.2
2018-04-17T04:14:54.654Z,47.2
2018-04-17T04:15:44.682Z,47.2
2018-04-17T04:16:49.835Z,47.2
2018-04-17T04:17:24.473Z,47.2
2018-04-17T04:18:15.531Z,47.2
2018-04-17T04:19:05.172Z,47.2
2018-04-17T04:19:55.503Z,47.1
2018-04-17T04:20:44.740Z,47.1
2018-04-17T04:21:34.822Z,47.1
2018-04-17T04:22:40.073Z,47.1
2018-04-17T04:23:14.913Z,47.1
2018-04-17T04:24:06.236Z,47.1
2018-04-17T04:24:55.621Z,47.1
2018-04-17T04:25:46.336Z,47.1
2018-04-17T04:26:35.447Z,47.1
2018-04-17T04:27:25.894Z,47.1
2018-04-17T04:28:16.028Z,47.1
2018-04-17T04:29:05.561Z,47.1
2018-04-17T04:29:55.743Z,47.1
2018-04-17T04:30:45.753Z,47.1
2018-04-17T04:31:36.163Z,47.1
2018-04-17T04:32:25.950Z,47
2018-04-17T04:33:15.994Z,47
2018-04-17T04:34:05.751Z,47
2018-04-17T04:34:56.208Z,47
2018-04-17T04:35:46.433Z,47
2018-04-17T04:36:51.130Z,47
2018-04-17T04:37:26.535Z,47
2018-04-17T04:38:16.860Z,46.9
2018-04-17T04:39:06.713Z,47
2018-04-17T04:39:56.433Z,46.9
2018-04-17T04:40:47.463Z,46.9
2018-04-17T04:41:36.901Z,46.9
2018-04-17T04:42:26.652Z,46.9
2018-04-17T04:43:17.126Z,46.9
2018-04-17T04:44:21.988Z,46.9
2018-04-17T04:44:57.425Z,46.9
2018-04-17T04:45:47.508Z,46.9
2018-04-17T04:46:37.452Z,46.9
2018-04-17T04:47:27.232Z,46.9
2018-04-17T04:48:17.651Z,46.9
2018-04-17T04:49:06.865Z,46.9
2018-04-17T04:49:57.796Z,46.8
2018-04-17T04:50:47.842Z,46.8
2018-04-17T04:51:37.352Z,46.8
2018-04-17T04:52:27.925Z,46.8
2018-04-17T04:53:17.961Z,46.8
2018-04-17T04:54:08.073Z,46.8
2018-04-17T04:54:58.035Z,46.8
2018-04-17T04:55:47.827Z,46.8
2018-04-17T04:56:38.295Z,46.8
2018-04-17T04:57:28.277Z,46.8
2018-04-17T04:58:32.797Z,46.8
2018-04-17T04:59:07.899Z,46.8
2018-04-17T04:59:57.962Z,46.8
2018-04-17T05:00:48.218Z,46.8
2018-04-17T05:01:38.659Z,46.8
2018-04-17T05:02:28.714Z,46.8
2018-04-17T05:03:18.225Z,46.8
2018-04-17T05:04:08.268Z,46.8
2018-04-17T05:05:13.402Z,46.8
2018-04-17T05:05:48.703Z,46.8
2018-04-17T05:06:39.016Z,46.8
2018-04-17T05:07:29.055Z,46.8
2018-04-17T05:08:19.134Z,46.7
2018-04-17T05:09:09.599Z,46.7
2018-04-17T05:09:58.954Z,46.6
2018-04-17T05:10:49.086Z,46.6
2018-04-17T05:11:38.811Z,46.6
2018-04-17T05:12:29.125Z,46.5
2018-04-17T05:13:18.972Z,46.4
2018-04-17T05:14:09.283Z,46.4
2018-04-17T05:14:59.837Z,46.4
2018-04-17T05:15:49.439Z,46.4
2018-04-17T05:16:39.798Z,46.3
2018-04-17T05:17:44.531Z,46.3
2018-04-17T05:18:19.534Z,46.3
2018-04-17T05:19:10.168Z,46.3
2018-04-17T05:19:58.934Z,46.3
2018-04-17T05:20:50.125Z,46.2
2018-04-17T05:21:39.571Z,46.2
2018-04-17T05:22:29.896Z,46.2
2018-04-17T05:23:52.557Z,46.1
2018-04-17T05:24:10.046Z,46.1
2018-04-17T05:25:00.405Z,46.1
2018-04-17T05:25:50.171Z,46.1
2018-04-17T05:26:40.496Z,46
2018-04-17T05:27:29.451Z,45.9
2018-04-17T05:28:20.405Z,45.9
2018-04-17T05:29:10.392Z,45.9
2018-04-17T05:30:01.081Z,45.8
2018-04-17T05:30:50.835Z,45.8
2018-04-17T05:31:41.344Z,45.8
2018-04-17T05:32:30.389Z,45.7
2018-04-17T05:33:52.124Z,45.7
2018-04-17T05:34:10.792Z,45.6
2018-04-17T05:35:00.558Z,45.6
2018-04-17T05:35:50.931Z,45.5
2018-04-17T05:36:41.343Z,45.5
2018-04-17T05:37:31.004Z,45.5
2018-04-17T05:38:21.141Z,45.4
2018-04-17T05:39:10.913Z,45.4
2018-04-17T05:40:01.559Z,45.4
2018-04-17T05:40:51.601Z,45.4
2018-04-17T05:41:40.918Z,45.4
2018-04-17T05:42:31.476Z,45.3
2018-04-17T05:43:21.988Z,45.2
2018-04-17T05:44:11.590Z,44.9
2018-04-17T05:45:01.928Z,44.4
2018-04-17T05:45:51.668Z,43.1
2018-04-17T05:46:41.989Z,42.7
2018-04-17T05:47:32.076Z,41.6
2018-04-17T05:48:22.183Z,40.1
2018-04-17T05:49:26.611Z,38.7
2018-04-17T05:50:02.001Z,37.1
2018-04-17T05:50:52.065Z,36.4
2018-04-17T05:51:42.904Z,35.6
2018-04-17T05:52:32.172Z,34.9
2018-04-17T05:53:22.905Z,34.4
2018-04-17T05:54:12.615Z,33.9
2018-04-17T05:55:02.928Z,33.6
2018-04-17T05:56:07.955Z,33.3
2018-04-17T05:56:42.764Z,32.8
2018-04-17T05:57:32.588Z,32.4
2018-04-17T05:58:22.919Z,31.9
2018-04-17T05:59:27.337Z,31.5
2018-04-17T06:00:17.432Z,31
2018-04-17T06:00:53.105Z,30.7
2018-04-17T06:01:42.868Z,30.4
2018-04-17T06:02:33.200Z,30.1
2018-04-17T06:03:23.304Z,29.9
2018-04-17T06:04:13.100Z,29.8
2018-04-17T06:05:03.179Z,29.6
2018-04-17T06:05:53.535Z,29.4
2018-04-17T06:06:42.966Z,29.1
2018-04-17T06:07:33.590Z,29.1
2018-04-17T06:08:22.555Z,28.9
2018-04-17T06:09:13.174Z,28.8
2018-04-17T06:10:03.469Z,28.6
2018-04-17T06:10:53.884Z,41.6
2018-04-17T06:11:43.922Z,43.3
2018-04-17T06:12:33.769Z,40.4
2018-04-17T06:13:23.766Z,39.3
2018-04-17T06:14:14.086Z,45.1
2018-04-17T06:15:03.649Z,46.8
2018-04-17T06:15:54.256Z,45.6
2018-04-17T06:16:43.506Z,43
2018-04-17T06:17:33.491Z,39.9
2018-04-17T06:18:23.579Z,39.4
2018-04-17T06:19:14.194Z,38.3
2018-04-17T06:20:04.022Z,37.4
2018-04-17T06:20:54.196Z,36.7
2018-04-17T06:21:44.130Z,36.1
2018-04-17T06:22:34.475Z,35.6
2018-04-17T06:23:25.253Z,36.9
2018-04-17T06:24:14.812Z,45.9
2018-04-17T06:25:05.063Z,44.9
2018-04-17T06:25:54.118Z,41.4
2018-04-17T06:26:45.255Z,39
2018-04-17T06:27:34.817Z,44.7
2018-04-17T06:28:24.388Z,46.5
2018-04-17T06:29:14.585Z,44.1
2018-04-17T06:30:04.847Z,40.6
2018-04-17T06:30:54.820Z,40.3
2018-04-17T06:31:44.579Z,46.5
2018-04-17T06:32:34.939Z,44.8
2018-04-17T06:33:25.233Z,42.5
2018-04-17T06:34:14.781Z,40.7
2018-04-17T06:35:05.170Z,46.3
2018-04-17T06:35:55.687Z,47.3
2018-04-17T06:36:45.233Z,48
2018-04-17T06:37:35.356Z,48.4
2018-04-17T06:38:40.289Z,48.7
2018-04-17T06:39:15.604Z,48.8
2018-04-17T06:40:05.548Z,48.8
2018-04-17T06:40:55.548Z,48.9
2018-04-17T06:41:45.853Z,48.9
2018-04-17T06:42:35.670Z,48.9
2018-04-17T06:43:26.019Z,49
2018-04-17T06:44:16.102Z,49.1
2018-04-17T06:45:05.626Z,49.2
2018-04-17T06:45:56.219Z,49.3
2018-04-17T06:46:46.281Z,49.4
2018-04-17T06:47:37.584Z,49.5
2018-04-17T06:48:41.006Z,49.6
2018-04-17T06:49:17.418Z,49.5
2018-04-17T06:50:06.556Z,49.4
2018-04-17T06:50:56.319Z,49.4
2018-04-17T06:51:46.978Z,49.5
2018-04-17T06:52:36.948Z,49.6
2018-04-17T06:53:26.813Z,49.6
2018-04-17T06:54:16.808Z,49.5
2018-04-17T06:55:06.955Z,49.6
2018-04-17T06:55:56.393Z,49.6
2018-04-17T06:56:47.326Z,49.7
2018-04-17T06:57:37.118Z,49.8
2018-04-17T06:58:26.108Z,50.1
2018-04-17T06:59:17.389Z,50.1
2018-04-17T07:00:07.565Z,50.3
2018-04-17T07:01:12.283Z,50.3
2018-04-17T07:02:02.377Z,50.3
2018-04-17T07:02:37.173Z,50.3
2018-04-17T07:03:27.660Z,50.3
2018-04-17T07:04:17.561Z,50.4
2018-04-17T07:05:07.876Z,50.4
2018-04-17T07:05:58.435Z,50.4
2018-04-17T07:06:47.789Z,50.6
2018-04-17T07:07:38.572Z,50.6
2018-04-17T07:08:27.245Z,50.7
2018-04-17T07:09:18.486Z,50.9
2018-04-17T07:10:08.235Z,51
2018-04-17T07:10:58.154Z,51
2018-04-17T07:11:47.765Z,51
2018-04-17T07:12:38.727Z,50.9
2018-04-17T07:13:27.715Z,51
2018-04-17T07:14:18.003Z,51.1
2018-04-17T07:15:08.639Z,51.1
2018-04-17T07:15:58.913Z,51.2
2018-04-17T07:16:48.788Z,51.3
2018-04-17T07:17:38.354Z,51.4
2018-04-17T07:18:28.694Z,51.6
2018-04-17T07:19:19.046Z,51.6
2018-04-17T07:20:08.818Z,51.6
2018-04-17T07:20:59.189Z,51.6
2018-04-17T07:22:03.295Z,51.6
2018-04-17T07:22:38.821Z,51.6
2018-04-17T07:23:28.560Z,51.7
2018-04-17T07:24:18.544Z,51.8
2018-04-17T07:25:09.269Z,51.8
2018-04-17T07:25:59.218Z,51.9
2018-04-17T07:31:49.401Z,51.9
2018-04-17T07:32:39.731Z,52.1
2018-04-17T07:33:29.887Z,52.2
2018-04-17T07:35:10.221Z,52.6
2018-04-17T07:35:59.208Z,52.6
2018-04-17T07:36:50.070Z,52.7
2018-04-17T07:37:39.898Z,52.8
2018-04-17T07:38:30.296Z,52.8
2018-04-17T07:39:20.213Z,52.8
2018-04-17T07:40:10.300Z,52.8
2018-04-17T07:41:00.202Z,52.9
2018-04-17T07:41:50.730Z,52.9
2018-04-17T07:42:40.262Z,53
2018-04-17T07:43:45.773Z,53
2018-04-17T07:44:20.936Z,53.1
2018-04-17T07:45:24.766Z,53.3
2018-04-17T07:46:00.796Z,53.4
2018-04-17T07:46:51.337Z,53.6
2018-04-17T07:47:40.931Z,53.8
2018-04-17T07:48:30.977Z,53.8
2018-04-17T07:49:35.969Z,53.9
2018-04-17T07:50:11.108Z,54
2018-04-17T07:51:01.439Z,54.1
2018-04-17T07:51:50.697Z,54.1
2018-04-17T07:52:41.589Z,54.2
2018-04-17T07:53:31.611Z,54.3
2018-04-17T07:54:21.692Z,54.3
2018-04-17T07:55:11.762Z,54.3
2018-04-17T07:56:02.099Z,54.3
2018-04-17T07:56:51.336Z,54.4
2018-04-17T07:57:41.747Z,54.4
2018-04-17T07:58:32.098Z,54.5
2018-04-17T07:59:21.987Z,54.6
2018-04-17T08:00:11.578Z,54.6
2018-04-17T08:01:01.944Z,54.6
2018-04-17T08:01:51.959Z,54.6
2018-04-17T08:02:42.283Z,54.6
2018-04-17T08:03:31.827Z,54.6
2018-04-17T08:04:22.411Z,54.6
2018-04-17T08:05:12.242Z,54.8
2018-04-17T08:06:02.601Z,54.8
2018-04-17T08:07:07.040Z,54.9
2018-04-17T08:07:42.746Z,55.1
2018-04-17T08:08:32.522Z,55.1
2018-04-17T08:09:21.721Z,55.2
2018-04-17T08:10:12.148Z,55.3
2018-04-17T08:11:02.421Z,55.3
2018-04-17T08:11:53.279Z,55.4
2018-04-17T08:12:42.210Z,55.5
2018-04-17T08:13:32.385Z,55.6
2018-04-17T08:14:22.474Z,55.7
2018-04-17T08:15:11.622Z,55.9
2018-04-17T08:16:03.373Z,56.1
2018-04-17T08:16:53.168Z,56.2
2018-04-17T08:17:43.733Z,56.3
2018-04-17T08:18:33.033Z,56.3
2018-04-17T08:19:23.478Z,56.4
2018-04-17T08:20:13.071Z,56.5
2018-04-17T08:21:03.415Z,56.6
2018-04-17T08:21:53.045Z,56.8
2018-04-17T08:22:43.372Z,56.9
2018-04-17T08:23:47.745Z,57
2018-04-17T08:24:23.737Z,57.1
2018-04-17T08:25:14.071Z,57.3
2018-04-17T08:26:04.113Z,57.4
2018-04-17T08:27:08.575Z,57.4
2018-04-17T08:27:44.237Z,57.7
2018-04-17T08:29:24.133Z,57.9
2018-04-17T08:30:29.074Z,58.2
2018-04-17T08:31:03.707Z,58.3
2018-04-17T08:31:54.776Z,58.4
2018-04-17T08:33:34.096Z,58.8
2018-04-17T08:34:24.751Z,58.8
2018-04-17T08:35:14.013Z,59
2018-04-17T08:36:04.144Z,59.1
2018-04-17T08:36:55.699Z,59.3
2018-04-17T08:37:44.776Z,59.4
2018-04-17T08:38:35.116Z,59.5
2018-04-17T08:39:25.260Z,59.6
2018-04-17T08:40:15.219Z,59.7
2018-04-17T08:41:04.746Z,59.8
2018-04-17T08:41:55.385Z,59.9
2018-04-17T08:42:45.883Z,60
2018-04-17T08:43:34.927Z,60.1
2018-04-17T08:44:25.543Z,60.1
2018-04-17T08:45:15.603Z,60.2
2018-04-17T08:46:05.701Z,60.2
2018-04-17T08:47:27.786Z,60.1
2018-04-17T08:47:45.330Z,59.9
2018-04-17T08:48:35.536Z,59.8
2018-04-17T08:49:24.643Z,59.7
2018-04-17T08:50:15.989Z,59.6
2018-04-17T08:51:05.772Z,59.6
2018-04-17T08:51:55.845Z,59.6
2018-04-17T08:52:45.352Z,59.6
2018-04-17T08:53:35.603Z,59.6
2018-04-17T08:54:26.271Z,59.6
2018-04-17T08:55:15.330Z,59.6
2018-04-17T08:56:05.337Z,59.6
2018-04-17T08:56:55.957Z,59.6
2018-04-17T08:57:46.221Z,59.7
2018-04-17T08:58:36.090Z,59.8
2018-04-17T08:59:41.909Z,59.9
2018-04-17T09:00:16.769Z,59.9
2018-04-17T09:01:21.919Z,59.9
2018-04-17T09:01:56.605Z,60.1
2018-04-17T09:03:01.798Z,60.1
2018-04-17T09:03:41.918Z,60
2018-04-17T09:04:31.502Z,60
2018-04-17T09:05:22.177Z,59.9
2018-04-17T09:06:11.877Z,59.8
2018-04-17T09:07:01.653Z,59.6
2018-04-17T09:07:51.198Z,59.6
2018-04-17T09:08:41.867Z,59.6
2018-04-17T09:09:31.840Z,59.5
2018-04-17T09:10:21.716Z,59.4
2018-04-17T09:11:12.519Z,59.4
2018-04-17T09:12:02.088Z,59.4
2018-04-17T09:12:51.147Z,59.4
2018-04-17T09:13:41.749Z,59.4
2018-04-17T09:14:31.771Z,59.6
2018-04-17T09:15:36.419Z,59.6
2018-04-17T09:16:12.689Z,59.6
2018-04-17T09:17:01.603Z,59.6
2018-04-17T09:17:52.232Z,59.7
2018-04-17T09:18:42.610Z,59.8
2018-04-17T09:19:32.954Z,59.8
2018-04-17T09:20:22.537Z,59.8
2018-04-17T09:21:12.512Z,59.9
2018-04-17T09:22:02.845Z,60
2018-04-17T09:23:07.518Z,60.1
2018-04-17T09:23:43.481Z,60.1
2018-04-17T09:24:31.976Z,60
2018-04-17T09:25:36.902Z,59.9
2018-04-17T09:26:13.647Z,59.9
2018-04-17T09:27:02.183Z,59.9
2018-04-17T09:27:52.734Z,59.9
2018-04-17T09:28:43.363Z,59.9
2018-04-17T09:29:33.420Z,59.9
2018-04-17T09:30:23.488Z,59.8
2018-04-17T09:31:13.503Z,59.8
2018-04-17T09:32:03.910Z,59.7
2018-04-17T09:32:53.993Z,59.6
2018-04-17T09:33:44.008Z,59.6
2018-04-17T09:34:33.906Z,59.5
2018-04-17T09:35:23.565Z,59.4
2018-04-17T09:36:14.133Z,59.4
2018-04-17T09:37:04.074Z,59.4
2018-04-17T09:37:54.281Z,59.4
2018-04-17T09:38:58.770Z,59.4
2018-04-17T09:39:33.911Z,59.5
2018-04-17T09:40:24.572Z,59.6
2018-04-17T09:41:14.595Z,59.8
2018-04-17T09:42:04.071Z,59.9
2018-04-17T09:42:54.143Z,59.8
2018-04-17T09:43:44.500Z,59.8
2018-04-17T09:44:34.739Z,59.7
2018-04-17T09:45:25.090Z,59.7
2018-04-17T09:46:14.413Z,59.6
2018-04-17T09:47:05.234Z,59.6
2018-04-17T09:47:54.825Z,59.6
2018-04-17T09:48:44.868Z,59.5
2018-04-17T09:49:35.267Z,59.5
2018-04-17T09:50:39.858Z,59.4
2018-04-17T09:51:15.310Z,59.4
2018-04-17T09:52:03.829Z,59.4
2018-04-17T09:52:55.503Z,59.4
2018-04-17T09:53:44.717Z,59.4
2018-04-17T09:54:35.371Z,59.4
2018-04-17T09:55:25.119Z,59.4
2018-04-17T09:56:15.336Z,59.5
2018-04-17T09:57:06.236Z,59.6
2018-04-17T09:59:00.674Z,59.8
2018-04-17T09:59:35.194Z,59.8
2018-04-17T10:00:40.446Z,59.8
2018-04-17T10:01:15.202Z,59.8
2018-04-17T10:02:06.106Z,59.8
2018-04-17T10:02:55.514Z,59.9
2018-04-17T10:03:46.303Z,59.9
2018-04-17T10:04:36.371Z,59.9
2018-04-17T10:05:26.186Z,59.9
2018-04-17T10:06:16.026Z,60
2018-04-17T10:07:05.960Z,60.1
2018-04-17T10:07:56.661Z,60.3
2018-04-17T10:08:46.616Z,60.5
2018-04-17T10:09:36.721Z,60.6
2018-04-17T10:10:26.235Z,60.5
2018-04-17T10:11:16.743Z,60.4
2018-04-17T10:12:07.028Z,60.3
2018-04-17T10:12:56.763Z,60.3
2018-04-17T10:13:46.530Z,60.3
2018-04-17T10:14:36.850Z,60.3
2018-04-17T10:15:26.961Z,60.3
2018-04-17T10:16:16.731Z,60.3
2018-04-17T10:17:06.526Z,60.4
2018-04-17T10:17:56.890Z,60.6
2018-04-17T10:18:46.922Z,60.8
2018-04-17T10:19:37.158Z,60.8
2018-04-17T10:20:27.177Z,60.9
2018-04-17T10:21:17.697Z,61
2018-04-17T10:22:07.462Z,60.9
2018-04-17T10:22:57.032Z,60.9
2018-04-17T10:23:47.328Z,60.8
2018-04-17T10:24:37.670Z,60.8
2018-04-17T10:25:27.723Z,60.8
2018-04-17T10:26:18.002Z,60.7
2018-04-17T10:27:07.853Z,60.7
2018-04-17T10:27:58.130Z,60.6
2018-04-17T10:29:02.836Z,60.6
2018-04-17T10:29:38.002Z,60.6
2018-04-17T10:30:27.887Z,60.5
2018-04-17T10:31:17.852Z,60.6
2018-04-17T10:32:07.387Z,60.6
2018-04-17T10:32:58.492Z,60.6
2018-04-17T10:34:25.878Z,60.5
2018-04-17T10:35:15.914Z,60.5
2018-04-17T10:36:06.284Z,60.5
2018-04-17T10:36:55.789Z,60.5
2018-04-17T10:37:46.108Z,60.4
2018-04-17T10:38:36.479Z,60.4
2018-04-17T10:39:25.779Z,60.4
2018-04-17T10:40:16.569Z,60.4
2018-04-17T10:41:06.127Z,60.4
2018-04-17T10:41:56.760Z,60.3
2018-04-17T10:42:46.295Z,60.3
2018-04-17T10:43:36.556Z,60.3
2018-04-17T10:44:26.644Z,60.3
2018-04-17T10:45:15.649Z,60.3
2018-04-17T10:46:06.571Z,60.4
2018-04-17T10:46:56.923Z,60.4
2018-04-17T10:47:46.090Z,60.4
2018-04-17T10:48:36.071Z,60.4
2018-04-17T10:49:25.968Z,60.4
2018-04-17T10:50:16.541Z,60.4
2018-04-17T10:51:06.878Z,60.4
2018-04-17T10:51:57.192Z,60.4
2018-04-17T10:52:46.991Z,60.4
2018-04-17T10:53:37.648Z,60.4
2018-04-17T10:54:27.401Z,60.4
2018-04-17T10:55:17.421Z,60.4
2018-04-17T10:56:07.238Z,60.4
2018-04-17T10:56:57.577Z,60.4
2018-04-17T10:57:47.423Z,60.6
2018-04-17T10:58:37.730Z,60.7
2018-04-17T10:59:26.378Z,60.8
2018-04-17T11:00:17.885Z,60.8
2018-04-17T11:01:07.945Z,60.9
2018-04-17T11:01:57.965Z,60.8
2018-04-17T11:02:47.745Z,60.8
2018-04-17T11:03:38.100Z,60.8
2018-04-17T11:04:28.463Z,60.8
2018-04-17T11:05:18.535Z,60.8
2018-04-17T11:06:08.300Z,60.8
2018-04-17T11:06:58.320Z,60.8
2018-04-17T11:07:48.697Z,60.8
2018-04-17T11:08:38.202Z,60.8
2018-04-17T11:09:28.308Z,60.8
2018-04-17T11:10:18.927Z,60.8
2018-04-17T11:11:08.658Z,60.8
2018-04-17T11:11:58.775Z,60.8
2018-04-17T11:12:49.097Z,60.9
2018-04-17T11:13:38.300Z,61
2018-04-17T11:14:29.027Z,61.2
2018-04-17T11:15:19.010Z,61.3
2018-04-17T11:16:09.364Z,61.3
2018-04-17T11:16:59.449Z,61.4
2018-04-17T11:17:49.187Z,61.4
2018-04-17T11:18:39.257Z,61.3
2018-04-17T11:19:29.401Z,61.1